createdAt,value
2022-12-01T00:00:06.276Z,974.49
2022-12-01T00:01:06.245Z,974.51
2022-12-01T00:02:06.352Z,974.51
2022-12-01T00:03:06.286Z,974.49
2022-12-01T00:04:06.406Z,974.47
2022-12-01T00:05:06.193Z,974.45
2022-12-01T00:06:06.212Z,974.45
2022-12-01T00:07:06.170Z,974.46
2022-12-01T00:08:06.239Z,974.42
2022-12-01T00:09:06.321Z,974.40
2022-12-01T00:10:06.201Z,974.45
2022-12-01T00:11:06.120Z,974.44
2022-12-01T00:12:06.139Z,974.41
2022-12-01T00:13:06.098Z,974.44
2022-12-01T00:14:06.119Z,974.46
2022-12-01T00:15:06.248Z,974.44
2022-12-01T00:16:06.118Z,974.44
2022-12-01T00:17:06.070Z,974.47
2022-12-01T00:18:06.049Z,974.39
2022-12-01T00:19:06.196Z,974.49
2022-12-01T00:20:06.047Z,974.44
2022-12-01T00:21:05.994Z,974.44
2022-12-01T00:22:06.011Z,974.41
2022-12-01T00:23:05.975Z,974.45
2022-12-01T00:24:06.150Z,974.43
2022-12-01T00:25:05.942Z,974.51
2022-12-01T00:26:05.949Z,974.44
2022-12-01T00:27:05.919Z,974.43
2022-12-01T00:28:06.879Z,974.44
2022-12-01T00:29:06.069Z,974.44
2022-12-01T00:30:06.750Z,974.47
2022-12-01T00:31:05.911Z,974.46
2022-12-01T00:32:05.896Z,974.45
2022-12-01T00:33:05.848Z,974.42
2022-12-01T00:34:10.979Z,974.45
2022-12-01T00:35:06.816Z,974.44
2022-12-01T00:36:05.836Z,974.48
2022-12-01T00:37:05.796Z,974.43
2022-12-01T00:38:05.856Z,974.44
2022-12-01T00:39:05.945Z,974.47
2022-12-01T00:40:05.871Z,974.46
2022-12-01T00:41:05.743Z,974.47
2022-12-01T00:42:10.129Z,974.42
2022-12-01T00:43:06.712Z,974.45
2022-12-01T00:44:05.892Z,974.45
2022-12-01T00:45:05.693Z,974.47
2022-12-01T00:46:05.752Z,974.45
2022-12-01T00:47:05.740Z,974.41
2022-12-01T00:48:05.674Z,974.46
2022-12-01T00:49:05.810Z,974.47
2022-12-01T00:50:05.760Z,974.48
2022-12-01T00:51:05.619Z,974.48
2022-12-01T00:52:05.643Z,974.47
2022-12-01T00:53:05.588Z,974.49
2022-12-01T00:54:05.879Z,974.54
2022-12-01T00:55:05.575Z,974.53
2022-12-01T00:56:05.574Z,974.55
2022-12-01T00:57:05.544Z,974.54
2022-12-01T00:58:05.545Z,974.52
2022-12-01T00:59:05.696Z,974.53
2022-12-01T01:00:05.533Z,974.50
2022-12-01T01:01:05.577Z,974.56
2022-12-01T01:02:05.588Z,974.54
2022-12-01T01:03:05.470Z,974.52
2022-12-01T01:04:05.650Z,974.50
2022-12-01T01:05:05.443Z,974.55
2022-12-01T01:06:05.440Z,974.50
2022-12-01T01:07:05.409Z,974.55
2022-12-01T01:08:05.453Z,974.53
2022-12-01T01:09:05.558Z,974.52
2022-12-01T01:10:05.410Z,974.52
2022-12-01T01:11:05.422Z,974.57
2022-12-01T01:12:05.370Z,974.51
2022-12-01T01:13:05.345Z,974.51
2022-12-01T01:14:05.556Z,974.49
2022-12-01T01:15:05.307Z,974.51
2022-12-01T01:16:05.337Z,974.47
2022-12-01T01:17:05.301Z,974.49
2022-12-01T01:18:05.514Z,974.46
2022-12-01T01:19:05.263Z,974.50
2022-12-01T01:20:05.273Z,974.48
2022-12-01T01:21:05.363Z,974.46
2022-12-01T01:22:05.251Z,974.48
2022-12-01T01:23:05.674Z,974.45
2022-12-01T01:24:05.222Z,974.46
2022-12-01T01:25:05.180Z,974.43
2022-12-01T01:26:05.201Z,974.45
2022-12-01T01:27:05.158Z,974.50
2022-12-01T01:28:05.610Z,974.47
2022-12-01T01:29:05.128Z,974.46
2022-12-01T01:30:05.127Z,974.43
2022-12-01T01:31:05.131Z,974.37
2022-12-01T01:32:05.105Z,974.41
2022-12-01T01:33:05.246Z,974.40
2022-12-01T01:34:05.254Z,974.40
2022-12-01T01:35:05.052Z,974.43
2022-12-01T01:36:06.014Z,974.43
2022-12-01T01:37:05.035Z,974.45
2022-12-01T01:38:05.037Z,974.38
2022-12-01T01:39:05.174Z,974.46
2022-12-01T01:40:05.001Z,974.42
2022-12-01T01:41:04.970Z,974.45
2022-12-01T01:42:05.006Z,974.40
2022-12-01T01:43:05.120Z,974.41
2022-12-01T01:44:05.153Z,974.37
2022-12-01T01:45:04.919Z,974.38
2022-12-01T01:46:04.995Z,974.41
2022-12-01T01:47:04.909Z,974.43
2022-12-01T01:48:05.076Z,974.43
2022-12-01T01:49:05.028Z,974.41
2022-12-01T01:50:04.876Z,974.41
2022-12-01T01:51:04.846Z,974.37
2022-12-01T01:52:04.844Z,974.41
2022-12-01T01:53:05.079Z,974.41
2022-12-01T01:54:04.823Z,974.40
2022-12-01T01:55:04.790Z,974.43
2022-12-01T01:56:04.832Z,974.44
2022-12-01T01:57:04.762Z,974.37
2022-12-01T01:58:04.802Z,974.38
2022-12-01T01:59:05.851Z,974.43
2022-12-01T02:00:04.751Z,974.39
2022-12-01T02:01:04.749Z,974.42
2022-12-01T02:02:04.786Z,974.38
2022-12-01T02:03:04.871Z,974.41
2022-12-01T02:04:04.794Z,974.42
2022-12-01T02:05:04.661Z,974.39
2022-12-01T02:06:05.294Z,974.42
2022-12-01T02:07:04.647Z,974.39
2022-12-01T02:08:04.892Z,974.41
2022-12-01T02:09:05.535Z,974.40
2022-12-01T02:10:05.285Z,974.34
2022-12-01T02:11:04.592Z,974.38
2022-12-01T02:12:04.634Z,974.35
2022-12-01T02:13:04.753Z,974.41
2022-12-01T02:14:04.579Z,974.42
2022-12-01T02:15:04.552Z,974.39
2022-12-01T02:16:04.522Z,974.39
2022-12-01T02:17:04.629Z,974.41
2022-12-01T02:18:04.850Z,974.39
2022-12-01T02:19:04.508Z,974.41
2022-12-01T02:20:04.467Z,974.39
2022-12-01T02:21:04.500Z,974.38
2022-12-01T02:22:04.530Z,974.34
2022-12-01T02:23:04.648Z,974.37
2022-12-01T02:24:04.417Z,974.33
2022-12-01T02:25:04.417Z,974.36
2022-12-01T02:26:04.387Z,974.30
2022-12-01T02:27:04.467Z,974.33
2022-12-01T02:28:04.536Z,974.36
2022-12-01T02:29:04.393Z,974.36
2022-12-01T02:30:04.334Z,974.38
2022-12-01T02:31:04.415Z,974.34
2022-12-01T02:32:04.391Z,974.43
2022-12-01T02:33:04.492Z,974.40
2022-12-01T02:34:04.284Z,974.36
2022-12-01T02:35:04.281Z,974.37
2022-12-01T02:36:04.261Z,974.38
2022-12-01T02:37:04.369Z,974.36
2022-12-01T02:38:04.411Z,974.39
2022-12-01T02:39:04.239Z,974.37
2022-12-01T02:40:04.325Z,974.39
2022-12-01T02:41:04.207Z,974.35
2022-12-01T02:42:04.306Z,974.34
2022-12-01T02:43:04.357Z,974.32
2022-12-01T02:44:04.157Z,974.35
2022-12-01T02:45:04.165Z,974.34
2022-12-01T02:46:04.150Z,974.36
2022-12-01T02:47:04.212Z,974.38
2022-12-01T02:48:04.284Z,974.37
2022-12-01T02:49:04.116Z,974.35
2022-12-01T02:50:04.074Z,974.35
2022-12-01T02:51:04.823Z,974.38
2022-12-01T02:52:05.552Z,974.38
2022-12-01T02:53:04.221Z,974.38
2022-12-01T02:54:04.070Z,974.37
2022-12-01T02:55:04.039Z,974.38
2022-12-01T02:56:04.967Z,974.40
2022-12-01T02:57:04.117Z,974.43
2022-12-01T02:58:04.148Z,974.38
2022-12-01T02:59:03.989Z,974.40
2022-12-01T03:00:04.011Z,974.40
2022-12-01T03:01:03.971Z,974.43
2022-12-01T03:02:03.927Z,974.39
2022-12-01T03:03:03.988Z,974.42
2022-12-01T03:04:04.066Z,974.39
2022-12-01T03:05:03.907Z,974.39
2022-12-01T03:06:03.945Z,974.38
2022-12-01T03:07:03.878Z,974.38
2022-12-01T03:08:03.870Z,974.39
2022-12-01T03:09:03.881Z,974.36
2022-12-01T03:10:03.826Z,974.35
2022-12-01T03:11:03.839Z,974.36
2022-12-01T03:12:03.792Z,974.36
2022-12-01T03:13:03.813Z,974.39
2022-12-01T03:14:04.918Z,974.35
2022-12-01T03:15:03.759Z,974.37
2022-12-01T03:16:03.855Z,974.34
2022-12-01T03:17:03.727Z,974.35
2022-12-01T03:18:03.792Z,974.30
2022-12-01T03:19:03.869Z,974.35
2022-12-01T03:20:03.720Z,974.34
2022-12-01T03:21:03.679Z,974.31
2022-12-01T03:22:03.696Z,974.32
2022-12-01T03:23:03.766Z,974.32
2022-12-01T03:24:03.830Z,974.33
2022-12-01T03:25:03.624Z,974.32
2022-12-01T03:26:03.644Z,974.31
2022-12-01T03:27:04.443Z,974.28
2022-12-01T03:29:05.512Z,974.27
2022-12-01T03:30:03.579Z,974.28
2022-12-01T03:31:03.585Z,974.25
2022-12-01T03:32:03.560Z,974.23
2022-12-01T03:33:03.521Z,974.24
2022-12-01T03:34:03.700Z,974.23
2022-12-01T03:35:03.489Z,974.22
2022-12-01T03:36:03.498Z,974.24
2022-12-01T03:37:04.300Z,974.25
2022-12-01T03:38:03.476Z,974.24
2022-12-01T03:39:03.624Z,974.22
2022-12-01T03:40:03.458Z,974.25
2022-12-01T03:41:03.414Z,974.25
2022-12-01T03:42:03.424Z,974.27
2022-12-01T03:43:03.394Z,974.24
2022-12-01T03:44:03.405Z,974.26
2022-12-01T03:45:03.536Z,974.32
2022-12-01T03:46:03.437Z,974.29
2022-12-01T03:47:03.332Z,974.30
2022-12-01T03:48:03.365Z,974.31
2022-12-01T03:49:03.312Z,974.29
2022-12-01T03:50:03.500Z,974.29
2022-12-01T03:51:04.146Z,974.31
2022-12-01T03:52:03.299Z,974.32
2022-12-01T03:53:03.259Z,974.30
2022-12-01T03:54:03.268Z,974.26
2022-12-01T03:55:03.408Z,974.29
2022-12-01T03:56:03.248Z,974.32
2022-12-01T03:57:03.215Z,974.33
2022-12-01T03:58:03.224Z,974.33
2022-12-01T03:59:03.189Z,974.35
2022-12-01T04:00:03.374Z,974.34
2022-12-01T04:01:03.201Z,974.36
2022-12-01T04:02:03.223Z,974.27
2022-12-01T04:03:03.257Z,974.35
2022-12-01T04:04:03.154Z,974.35
2022-12-01T04:05:04.333Z,974.39
2022-12-01T04:06:03.132Z,974.31
2022-12-01T04:07:03.081Z,974.38
2022-12-01T04:08:03.264Z,974.31
2022-12-01T04:09:03.060Z,974.39
2022-12-01T04:10:03.250Z,974.37
2022-12-01T04:11:03.030Z,974.41
2022-12-01T04:12:03.040Z,974.37
2022-12-01T04:13:03.138Z,974.37
2022-12-01T04:14:03.013Z,974.37
2022-12-01T04:15:03.170Z,974.41
2022-12-01T04:16:03.109Z,974.40
2022-12-01T04:17:02.957Z,974.33
2022-12-01T04:18:02.985Z,974.43
2022-12-01T04:19:02.934Z,974.44
2022-12-01T04:20:03.125Z,974.39
2022-12-01T04:21:03.804Z,974.43
2022-12-01T04:22:02.987Z,974.44
2022-12-01T04:23:02.882Z,974.38
2022-12-01T04:24:02.914Z,974.40
2022-12-01T04:25:02.859Z,974.38
2022-12-01T04:26:03.089Z,974.40
2022-12-01T04:27:02.918Z,974.36
2022-12-01T04:28:02.830Z,974.41
2022-12-01T04:29:03.541Z,974.40
2022-12-01T04:30:02.807Z,974.37
2022-12-01T04:31:03.269Z,974.43
2022-12-01T04:32:02.785Z,974.40
2022-12-01T04:33:02.754Z,974.41
2022-12-01T04:34:02.766Z,974.40
2022-12-01T04:35:03.601Z,974.39
2022-12-01T04:36:03.683Z,974.41
2022-12-01T04:37:02.706Z,974.42
2022-12-01T04:38:02.723Z,974.39
2022-12-01T04:39:02.684Z,974.42
2022-12-01T04:40:03.108Z,974.43
2022-12-01T04:41:02.656Z,974.44
2022-12-01T04:42:02.652Z,974.46
2022-12-01T04:43:02.736Z,974.46
2022-12-01T04:44:02.648Z,974.43
2022-12-01T04:45:02.779Z,974.48
2022-12-01T04:46:02.609Z,974.46
2022-12-01T04:47:02.694Z,974.45
2022-12-01T04:48:02.591Z,974.46
2022-12-01T04:49:02.558Z,974.45
2022-12-01T04:50:02.740Z,974.46
2022-12-01T04:51:02.527Z,974.45
2022-12-01T04:52:02.546Z,974.44
2022-12-01T04:53:02.496Z,974.42
2022-12-01T04:54:03.235Z,974.39
2022-12-01T04:55:02.645Z,974.45
2022-12-01T04:56:02.474Z,974.45
2022-12-01T04:57:02.574Z,974.46
2022-12-01T04:58:02.453Z,974.48
2022-12-01T04:59:02.443Z,974.49
2022-12-01T05:00:02.602Z,974.46
2022-12-01T05:01:02.434Z,974.48
2022-12-01T05:02:02.482Z,974.46
2022-12-01T05:03:02.400Z,974.47
2022-12-01T05:04:02.390Z,974.43
2022-12-01T05:05:02.636Z,974.51
2022-12-01T05:06:02.371Z,974.50
2022-12-01T05:07:03.077Z,974.49
2022-12-01T05:08:02.363Z,974.49
2022-12-01T05:09:02.296Z,974.48
2022-12-01T05:10:02.526Z,974.49
2022-12-01T05:11:02.266Z,974.49
2022-12-01T05:12:02.307Z,974.48
2022-12-01T05:13:02.290Z,974.49
2022-12-01T05:14:02.265Z,974.48
2022-12-01T05:15:02.393Z,974.49
2022-12-01T05:16:02.262Z,974.51
2022-12-01T05:17:02.255Z,974.54
2022-12-01T05:18:03.057Z,974.46
2022-12-01T05:19:02.171Z,974.51
2022-12-01T05:20:02.355Z,974.54
2022-12-01T05:21:02.141Z,974.47
2022-12-01T05:22:02.159Z,974.51
2022-12-01T05:23:06.203Z,974.54
2022-12-01T05:24:02.131Z,974.52
2022-12-01T05:25:02.331Z,974.52
2022-12-01T05:26:02.110Z,974.49
2022-12-01T05:27:02.088Z,974.54
2022-12-01T05:28:10.945Z,974.57
2022-12-01T05:29:02.057Z,974.51
2022-12-01T05:30:02.226Z,974.52
2022-12-01T05:31:03.858Z,974.58
2022-12-01T05:32:02.117Z,974.51
2022-12-01T05:33:02.014Z,974.51
2022-12-01T05:34:02.017Z,974.55
2022-12-01T05:35:02.153Z,974.58
2022-12-01T05:36:01.972Z,974.53
2022-12-01T05:37:01.979Z,974.52
2022-12-01T05:38:07.363Z,974.54
2022-12-01T05:39:02.921Z,974.53
2022-12-01T05:40:02.143Z,974.53
2022-12-01T05:41:01.891Z,974.55
2022-12-01T05:42:01.901Z,974.57
2022-12-01T05:43:01.867Z,974.53
2022-12-01T05:44:01.869Z,974.56
2022-12-01T05:45:02.034Z,974.49
2022-12-01T05:46:01.893Z,974.52
2022-12-01T05:47:01.827Z,974.60
2022-12-01T05:48:01.861Z,974.59
2022-12-01T05:49:01.797Z,974.56
2022-12-01T05:50:05.559Z,974.57
2022-12-01T05:51:01.777Z,974.58
2022-12-01T05:52:01.812Z,974.54
2022-12-01T05:53:01.745Z,974.52
2022-12-01T05:54:01.749Z,974.52
2022-12-01T05:55:01.925Z,974.53
2022-12-01T05:56:01.723Z,974.55
2022-12-01T05:57:01.702Z,974.50
2022-12-01T05:58:01.702Z,974.50
2022-12-01T05:59:01.664Z,974.53
2022-12-01T06:00:01.860Z,974.53
2022-12-01T06:01:01.669Z,974.55
2022-12-01T06:02:01.695Z,974.52
2022-12-01T06:03:01.617Z,974.55
2022-12-01T06:04:01.700Z,974.56
2022-12-01T06:05:01.785Z,974.56
2022-12-01T06:06:01.608Z,974.54
2022-12-01T06:07:01.567Z,974.58
2022-12-01T06:08:01.635Z,974.60
2022-12-01T06:09:01.548Z,974.59
2022-12-01T06:10:01.752Z,974.58
2022-12-01T06:11:01.514Z,974.59
2022-12-01T06:12:01.520Z,974.61
2022-12-01T06:13:01.491Z,974.59
2022-12-01T06:14:01.694Z,974.53
2022-12-01T06:15:01.470Z,974.58
2022-12-01T06:16:01.494Z,974.55
2022-12-01T06:17:01.493Z,974.61
2022-12-01T06:18:01.440Z,974.63
2022-12-01T06:19:01.590Z,974.62
2022-12-01T06:20:01.418Z,974.66
2022-12-01T06:21:01.392Z,974.66
2022-12-01T06:22:01.417Z,974.64
2022-12-01T06:23:01.549Z,974.65
2022-12-01T06:24:01.555Z,974.65
2022-12-01T06:25:01.343Z,974.67
2022-12-01T06:26:01.299Z,974.64
2022-12-01T06:27:01.319Z,974.66
2022-12-01T06:28:01.296Z,974.66
2022-12-01T06:29:01.583Z,974.64
2022-12-01T06:30:01.321Z,974.67
2022-12-01T06:31:03.496Z,974.65
2022-12-01T06:32:01.265Z,974.68
2022-12-01T06:33:01.183Z,974.69
2022-12-01T06:34:01.419Z,974.67
2022-12-01T06:35:01.189Z,974.70
2022-12-01T06:36:01.160Z,974.73
2022-12-01T06:37:01.181Z,974.69
2022-12-01T06:38:01.165Z,974.72
2022-12-01T06:39:01.282Z,974.69
2022-12-01T06:40:01.121Z,974.69
2022-12-01T06:41:01.078Z,974.71
2022-12-01T06:42:01.087Z,974.72
2022-12-01T06:43:01.057Z,974.70
2022-12-01T06:44:01.237Z,974.76
2022-12-01T06:45:01.026Z,974.75
2022-12-01T06:46:02.422Z,974.75
2022-12-01T06:47:01.007Z,974.80
2022-12-01T06:48:01.014Z,974.78
2022-12-01T06:49:01.154Z,974.79
2022-12-01T06:50:01.005Z,974.80
2022-12-01T06:51:00.961Z,974.81
2022-12-01T06:52:01.269Z,974.82
2022-12-01T06:53:00.965Z,974.83
2022-12-01T06:54:05.398Z,974.86
2022-12-01T06:55:00.900Z,974.83
2022-12-01T06:56:00.925Z,974.83
2022-12-01T06:57:00.878Z,974.83
2022-12-01T06:58:00.890Z,974.84
2022-12-01T06:59:01.029Z,974.83
2022-12-01T07:00:00.863Z,974.84
2022-12-01T07:01:00.965Z,974.88
2022-12-01T07:02:00.887Z,974.86
2022-12-01T07:03:00.862Z,974.90
2022-12-01T07:04:00.995Z,974.87
2022-12-01T07:05:00.785Z,974.90
2022-12-01T07:06:00.795Z,974.89
2022-12-01T07:07:00.763Z,974.93
2022-12-01T07:08:00.793Z,974.95
2022-12-01T07:09:00.919Z,974.98
2022-12-01T07:10:00.733Z,975.00
2022-12-01T07:11:00.708Z,974.98
2022-12-01T07:12:00.709Z,974.94
2022-12-01T07:13:00.679Z,974.98
2022-12-01T07:14:00.870Z,975.04
2022-12-01T07:15:00.649Z,975.00
2022-12-01T07:16:00.671Z,975.05
2022-12-01T07:17:00.747Z,975.08
2022-12-01T07:18:00.655Z,975.03
2022-12-01T07:19:00.781Z,975.03
2022-12-01T07:20:00.617Z,975.08
2022-12-01T07:21:00.568Z,975.11
2022-12-01T07:22:00.598Z,975.06
2022-12-01T07:23:00.559Z,975.07
2022-12-01T07:24:00.748Z,975.05
2022-12-01T07:25:00.535Z,975.04
2022-12-01T07:26:00.535Z,975.05
2022-12-01T07:27:00.504Z,975.05
2022-12-01T07:28:00.493Z,975.08
2022-12-01T07:29:00.694Z,975.09
2022-12-01T07:30:00.481Z,975.06
2022-12-01T07:31:00.513Z,975.06
2022-12-01T07:32:00.441Z,975.08
2022-12-01T07:33:00.687Z,975.03
2022-12-01T07:34:00.590Z,975.11
2022-12-01T07:35:00.420Z,975.11
2022-12-01T07:36:00.402Z,975.08
2022-12-01T07:37:00.386Z,975.07
2022-12-01T07:38:00.369Z,975.12
2022-12-01T07:39:00.554Z,975.10
2022-12-01T07:40:00.337Z,975.13
2022-12-01T07:41:00.354Z,975.14
2022-12-01T07:42:00.308Z,975.16
2022-12-01T07:43:00.321Z,975.14
2022-12-01T07:44:00.454Z,975.12
2022-12-01T07:45:00.283Z,975.17
2022-12-01T07:46:00.298Z,975.11
2022-12-01T07:47:00.273Z,975.12
2022-12-01T07:48:00.231Z,975.14
2022-12-01T07:49:00.414Z,975.19
2022-12-01T07:50:00.211Z,975.16
2022-12-01T07:51:00.219Z,975.12
2022-12-01T07:52:00.201Z,975.12
2022-12-01T07:53:00.198Z,975.14
2022-12-01T07:54:00.338Z,975.14
2022-12-01T07:55:00.178Z,975.14
2022-12-01T07:56:04.221Z,975.13
2022-12-01T07:57:01.127Z,975.09
2022-12-01T07:58:00.096Z,975.16
2022-12-01T07:59:00.304Z,975.10
2022-12-01T08:00:00.081Z,975.11
2022-12-01T08:01:00.164Z,975.12
2022-12-01T08:02:00.204Z,975.07
2022-12-01T08:03:00.119Z,975.08
2022-12-01T08:04:00.208Z,975.11
2022-12-01T08:05:00.031Z,975.14
2022-12-01T08:06:00.012Z,975.13
2022-12-01T08:07:00.012Z,975.12
2022-12-01T08:08:00.056Z,975.14
2022-12-01T08:09:00.163Z,975.13
2022-12-01T08:09:59.949Z,975.15
2022-12-01T08:10:59.970Z,975.16
2022-12-01T08:11:59.928Z,975.16
2022-12-01T08:12:59.941Z,975.16
2022-12-01T08:14:00.077Z,975.15
2022-12-01T08:14:59.923Z,975.20
2022-12-01T08:15:59.935Z,975.15
2022-12-01T08:16:59.886Z,975.19
2022-12-01T08:17:59.888Z,975.16
2022-12-01T08:19:00.045Z,975.16
2022-12-01T08:19:59.833Z,975.15
2022-12-01T08:20:59.831Z,975.19
2022-12-01T08:21:59.809Z,975.13
2022-12-01T08:22:59.812Z,975.08
2022-12-01T08:23:59.951Z,975.11
2022-12-01T08:24:59.780Z,975.08
2022-12-01T08:26:00.029Z,975.09
2022-12-01T08:26:59.761Z,975.11
2022-12-01T08:27:59.740Z,975.14
2022-12-01T08:28:59.929Z,975.07
2022-12-01T08:29:59.714Z,975.09
2022-12-01T08:30:59.767Z,975.04
2022-12-01T08:31:59.677Z,975.09
2022-12-01T08:32:59.705Z,975.11
2022-12-01T08:33:59.844Z,975.06
2022-12-01T08:34:59.665Z,975.10
2022-12-01T08:35:59.625Z,975.12
2022-12-01T08:36:59.634Z,975.04
2022-12-01T08:37:59.775Z,975.05
2022-12-01T08:38:59.614Z,975.08
2022-12-01T08:39:59.585Z,975.07
2022-12-01T08:40:59.592Z,975.09
2022-12-01T08:41:59.562Z,975.06
2022-12-01T08:42:59.741Z,975.12
2022-12-01T08:44:00.355Z,975.09
2022-12-01T08:44:59.623Z,975.05
2022-12-01T08:45:59.526Z,975.04
2022-12-01T08:46:59.612Z,975.07
2022-12-01T08:47:59.649Z,975.10
2022-12-01T08:48:59.477Z,975.06
2022-12-01T08:49:59.447Z,975.06
2022-12-01T08:50:59.448Z,975.10
2022-12-01T08:51:59.439Z,975.06
2022-12-01T08:52:59.618Z,975.11
2022-12-01T08:53:59.395Z,975.13
2022-12-01T08:54:59.414Z,975.08
2022-12-01T08:55:59.375Z,975.10
2022-12-01T08:56:59.373Z,975.10
2022-12-01T08:57:59.523Z,975.09
2022-12-01T08:58:59.371Z,975.09
2022-12-01T08:59:59.321Z,975.11
2022-12-01T09:00:59.328Z,975.15
2022-12-01T09:02:02.531Z,975.14
2022-12-01T09:03:00.511Z,975.13
2022-12-01T09:03:59.272Z,975.13
2022-12-01T09:04:59.280Z,975.09
2022-12-01T09:05:59.254Z,975.13
2022-12-01T09:06:59.259Z,975.11
2022-12-01T09:07:59.449Z,975.13
2022-12-01T09:08:59.232Z,975.15
2022-12-01T09:09:59.198Z,975.17
2022-12-01T09:10:59.219Z,975.14
2022-12-01T09:11:59.195Z,975.20
2022-12-01T09:12:59.376Z,975.20
2022-12-01T09:13:59.147Z,975.19
2022-12-01T09:14:59.166Z,975.25
2022-12-01T09:15:59.158Z,975.19
2022-12-01T09:16:59.141Z,975.19
2022-12-01T09:17:59.293Z,975.22
2022-12-01T09:18:59.103Z,975.19
2022-12-01T09:19:59.081Z,975.25
2022-12-01T09:20:59.078Z,975.24
2022-12-01T09:21:59.050Z,975.21
2022-12-01T09:22:59.226Z,975.21
2022-12-01T09:23:59.020Z,975.26
2022-12-01T09:24:59.056Z,975.31
2022-12-01T09:25:58.998Z,975.25
2022-12-01T09:26:59.014Z,975.26
2022-12-01T09:27:59.147Z,975.27
2022-12-01T09:28:59.036Z,975.26
2022-12-01T09:29:58.987Z,975.30
2022-12-01T09:30:59.027Z,975.23
2022-12-01T09:31:58.925Z,975.27
2022-12-01T09:32:59.113Z,975.26
2022-12-01T09:33:58.903Z,975.26
2022-12-01T09:34:58.912Z,975.23
2022-12-01T09:35:58.872Z,975.28
2022-12-01T09:36:58.892Z,975.24
2022-12-01T09:37:59.021Z,975.25
2022-12-01T09:38:58.902Z,975.23
2022-12-01T09:39:58.828Z,975.27
2022-12-01T09:40:58.841Z,975.27
2022-12-01T09:41:58.808Z,975.25
2022-12-01T09:42:58.999Z,975.27
2022-12-01T09:43:58.779Z,975.26
2022-12-01T09:44:58.778Z,975.20
2022-12-01T09:45:58.751Z,975.24
2022-12-01T09:46:58.810Z,975.22
2022-12-01T09:47:58.896Z,975.22
2022-12-01T09:48:58.733Z,975.27
2022-12-01T09:49:58.699Z,975.22
2022-12-01T09:50:58.724Z,975.21
2022-12-01T09:51:58.671Z,975.20
2022-12-01T09:52:58.853Z,975.22
2022-12-01T09:53:58.645Z,975.24
2022-12-01T09:54:58.662Z,975.23
2022-12-01T09:56:05.918Z,975.26
2022-12-01T09:56:59.622Z,975.24
2022-12-01T09:57:58.772Z,975.20
2022-12-01T09:58:58.611Z,975.19
2022-12-01T09:59:58.590Z,975.19
2022-12-01T10:00:58.617Z,975.19
2022-12-01T10:01:58.596Z,975.18
2022-12-01T10:02:58.738Z,975.19
2022-12-01T10:03:58.520Z,975.16
2022-12-01T10:04:58.577Z,975.11
2022-12-01T10:06:59.497Z,975.13
2022-12-01T10:07:58.742Z,975.09
2022-12-01T10:08:58.476Z,975.13
2022-12-01T10:09:58.454Z,975.10
2022-12-01T10:10:58.454Z,975.08
2022-12-01T10:11:58.423Z,975.09
2022-12-01T10:12:58.604Z,975.09
2022-12-01T10:13:58.415Z,975.10
2022-12-01T10:14:58.413Z,975.07
2022-12-01T10:15:58.427Z,975.04
2022-12-01T10:16:58.420Z,975.04
2022-12-01T10:17:58.522Z,975.01
2022-12-01T10:18:58.349Z,974.99
2022-12-01T10:19:58.330Z,975.01
2022-12-01T10:20:58.348Z,974.99
2022-12-01T10:21:58.295Z,974.99
2022-12-01T10:22:58.669Z,974.94
2022-12-01T10:23:58.266Z,974.94
2022-12-01T10:24:58.276Z,974.95
2022-12-01T10:25:58.246Z,974.88
2022-12-01T10:26:58.435Z,974.91
2022-12-01T10:27:58.222Z,974.91
2022-12-01T10:28:58.247Z,974.88
2022-12-01T10:29:58.194Z,974.90
2022-12-01T10:30:58.204Z,974.84
2022-12-01T10:31:58.443Z,974.86
2022-12-01T10:32:58.189Z,974.87
2022-12-01T10:33:58.160Z,974.85
2022-12-01T10:34:58.152Z,974.84
2022-12-01T10:35:58.121Z,974.85
2022-12-01T10:36:58.302Z,974.80
2022-12-01T10:37:58.131Z,974.78
2022-12-01T10:38:58.126Z,974.78
2022-12-01T10:39:58.088Z,974.77
2022-12-01T10:40:58.104Z,974.71
2022-12-01T10:41:58.226Z,974.75
2022-12-01T10:42:58.047Z,974.75
2022-12-01T10:43:58.027Z,974.75
2022-12-01T10:44:58.026Z,974.82
2022-12-01T10:45:58.078Z,974.76
2022-12-01T10:46:58.193Z,974.80
2022-12-01T10:47:59.082Z,974.74
2022-12-01T10:48:57.973Z,974.77
2022-12-01T10:49:57.954Z,974.78
2022-12-01T10:50:57.949Z,974.72
2022-12-01T10:51:58.124Z,974.77
2022-12-01T10:52:57.932Z,974.75
2022-12-01T10:53:57.908Z,974.73
2022-12-01T10:54:57.925Z,974.78
2022-12-01T10:55:57.879Z,974.73
2022-12-01T10:56:58.051Z,974.75
2022-12-01T10:57:57.841Z,974.75
2022-12-01T10:58:57.848Z,974.77
2022-12-01T10:59:57.820Z,974.75
2022-12-01T11:01:00.250Z,974.72
2022-12-01T11:01:58.126Z,974.73
2022-12-01T11:02:57.997Z,974.76
2022-12-01T11:03:57.801Z,974.70
2022-12-01T11:04:57.786Z,974.74
2022-12-01T11:05:57.756Z,974.71
2022-12-01T11:06:57.924Z,974.73
2022-12-01T11:07:57.786Z,974.67
2022-12-01T11:08:57.744Z,974.71
2022-12-01T11:09:57.724Z,974.65
2022-12-01T11:10:57.727Z,974.69
2022-12-01T11:11:57.864Z,974.62
2022-12-01T11:12:57.703Z,974.71
2022-12-01T11:13:57.649Z,974.71
2022-12-01T11:14:57.661Z,974.67
2022-12-01T11:15:57.619Z,974.67
2022-12-01T11:16:57.873Z,974.64
2022-12-01T11:17:57.609Z,974.62
2022-12-01T11:18:57.661Z,974.64
2022-12-01T11:19:57.620Z,974.59
2022-12-01T11:20:57.598Z,974.58
2022-12-01T11:21:57.728Z,974.59
2022-12-01T11:22:57.565Z,974.59
2022-12-01T11:23:57.514Z,974.59
2022-12-01T11:24:57.535Z,974.57
2022-12-01T11:25:57.494Z,974.60
2022-12-01T11:26:57.684Z,974.60
2022-12-01T11:27:57.476Z,974.57
2022-12-01T11:29:04.524Z,974.58
2022-12-01T11:29:57.444Z,974.61
2022-12-01T11:30:57.453Z,974.61
2022-12-01T11:31:57.652Z,974.60
2022-12-01T11:32:57.432Z,974.58
2022-12-01T11:33:57.399Z,974.60
2022-12-01T11:34:57.410Z,974.62
2022-12-01T11:35:57.370Z,974.60
2022-12-01T11:36:57.596Z,974.58
2022-12-01T11:38:28.244Z,974.55
2022-12-01T11:38:58.358Z,974.60
2022-12-01T11:39:57.318Z,974.52
2022-12-01T11:40:57.341Z,974.59
2022-12-01T11:41:57.501Z,974.61
2022-12-01T11:42:57.286Z,974.62
2022-12-01T11:44:01.969Z,974.57
2022-12-01T11:44:58.256Z,974.58
2022-12-01T11:45:57.313Z,974.61
2022-12-01T11:47:21.457Z,974.61
2022-12-01T11:47:58.246Z,974.57
2022-12-01T11:48:57.213Z,974.60
2022-12-01T11:49:57.223Z,974.59
2022-12-01T11:50:57.187Z,974.59
2022-12-01T11:51:57.201Z,974.60
2022-12-01T11:52:57.349Z,974.55
2022-12-01T11:53:57.164Z,974.57
2022-12-01T11:54:57.131Z,974.58
2022-12-01T11:55:57.141Z,974.55
2022-12-01T11:57:31.850Z,974.55
2022-12-01T11:57:58.299Z,974.58
2022-12-01T11:58:57.119Z,974.56
2022-12-01T11:59:57.118Z,974.55
2022-12-01T12:00:57.098Z,974.56
2022-12-01T12:01:57.333Z,974.55
2022-12-01T12:02:57.035Z,974.58
2022-12-01T12:03:57.107Z,974.57
2022-12-01T12:04:57.009Z,974.53
2022-12-01T12:06:05.951Z,974.52
2022-12-01T12:06:58.155Z,974.53
2022-12-01T12:07:57.018Z,974.48
2022-12-01T12:08:56.988Z,974.51
2022-12-01T12:09:56.978Z,974.44
2022-12-01T12:10:57.006Z,974.47
2022-12-01T12:11:56.942Z,974.49
2022-12-01T12:12:57.081Z,974.47
2022-12-01T12:13:56.926Z,974.48
2022-12-01T12:14:56.893Z,974.45
2022-12-01T12:15:56.899Z,974.48
2022-12-01T12:16:56.876Z,974.47
2022-12-01T12:17:57.229Z,974.48
2022-12-01T12:18:56.830Z,974.45
2022-12-01T12:20:12.630Z,974.51
2022-12-01T12:20:57.806Z,974.52
2022-12-01T12:21:56.823Z,974.48
2022-12-01T12:22:56.956Z,974.52
2022-12-01T12:23:56.811Z,974.50
2022-12-01T12:24:56.754Z,974.49
2022-12-01T12:25:56.764Z,974.46
2022-12-01T12:26:56.724Z,974.44
2022-12-01T12:27:56.914Z,974.47
2022-12-01T12:28:56.719Z,974.49
2022-12-01T12:29:56.743Z,974.50